Time;durP1;ratioP1;P1;durP2;ratioP2;P2;SDS_P1;SDS_P2;PMS_P1;PMS_P2;Temp;Humidity;BMP_temperature;BMP_pressure;BME280_temperature;BME280_humidity;BME280_pressure;Samples;Min_cycle;Max_cycle;Signal;HPM_P1;HPM_P2
2022/11/13 00:00:35;;;;;;;16.55;9.50;;;;;;;13.20;68.80;101768.66;5039504;28;20049;-79
2022/11/13 00:03:38;;;;;;;24.63;9.95;;;;;;;13.35;68.69;101775.69;5043041;28;20060;-79
2022/11/13 00:06:42;;;;;;;18.88;9.35;;;;;;;13.27;68.33;101777.22;5049887;28;20056;-79
2022/11/13 00:09:46;;;;;;;19.13;8.98;;;;;;;13.25;68.34;101777.53;5059103;28;20052;-79
2022/11/13 00:12:49;;;;;;;13.73;9.23;;;;;;;13.13;68.56;101770.97;5057224;28;20068;-79
2022/11/13 00:15:58;;;;;;;12.10;7.82;;;;;;;13.15;67.78;101788.69;5062525;22;20068;-80
2022/11/13 00:19:02;;;;;;;16.52;8.88;;;;;;;13.02;67.84;101778.53;5052548;28;20709;-79
2022/11/13 00:22:05;;;;;;;21.38;9.98;;;;;;;12.98;67.67;101774.81;5052977;28;20408;-80
2022/11/13 00:25:09;;;;;;;11.52;7.50;;;;;;;13.09;67.55;101778.16;5055382;28;20039;-79
2022/11/13 00:28:12;;;;;;;11.63;7.78;;;;;;;13.17;65.74;101785.63;5038177;28;20045;-79
2022/11/13 00:31:16;;;;;;;11.57;7.45;;;;;;;13.24;65.19;101789.59;5033112;28;20052;-78
2022/11/13 00:34:19;;;;;;;10.77;6.95;;;;;;;13.22;64.00;101780.06;5033185;28;20052;-79
2022/11/13 00:37:23;;;;;;;9.75;5.40;;;;;;;13.26;61.68;101784.59;5026471;28;20053;-78
2022/11/13 00:40:26;;;;;;;10.70;5.32;;;;;;;13.46;60.58;101793.47;5014515;28;20459;-79
2022/11/13 00:43:29;;;;;;;22.85;5.30;;;;;;;13.54;59.69;101799.00;5013093;28;20516;-79
2022/11/13 00:46:33;;;;;;;11.50;4.72;;;;;;;13.57;59.00;101787.44;5013327;28;20045;-79
2022/11/13 00:49:36;;;;;;;6.60;4.13;;;;;;;13.73;58.39;101792.56;5014466;28;20052;-79
2022/11/13 00:52:39;;;;;;;3.92;2.42;;;;;;;13.85;57.40;101790.91;5019396;28;20044;-79
2022/11/13 00:55:44;;;;;;;3.05;1.77;;;;;;;14.01;54.86;101789.41;5014481;28;20053;-79
2022/11/13 00:58:47;;;;;;;2.00;1.27;;;;;;;14.13;55.57;101786.88;5020387;28;20048;-79
2022/11/13 01:01:50;;;;;;;3.88;1.15;;;;;;;14.14;53.83;101787.69;5034283;28;20052;-79
2022/11/13 01:04:54;;;;;;;3.28;1.30;;;;;;;14.26;54.13;101785.22;5021629;28;20045;-79
2022/11/13 01:07:57;;;;;;;6.20;0.93;;;;;;;14.35;52.46;101783.31;5014789;28;20056;-79
2022/11/13 01:11:07;;;;;;;2.25;1.35;;;;;;;14.52;54.08;101780.72;5015369;28;20053;-79
2022/11/13 01:14:11;;;;;;;2.75;1.08;;;;;;;14.76;52.57;101771.28;5027723;28;20048;-80
2022/11/13 01:17:14;;;;;;;6.28;1.58;;;;;;;14.85;52.35;101769.38;5035724;28;20049;-79
2022/11/13 01:20:17;;;;;;;4.93;2.20;;;;;;;14.99;56.01;101772.78;5023700;28;20047;-80
2022/11/13 01:23:21;;;;;;;4.53;1.40;;;;;;;15.03;53.56;101762.03;5037337;28;20515;-79
2022/11/13 01:26:27;;;;;;;2.55;1.25;;;;;;;15.02;52.14;101755.72;5036591;28;20048;-79
2022/11/13 01:29:32;;;;;;;1.50;1.02;;;;;;;15.10;51.59;101757.66;5039875;28;20051;-79
2022/11/13 01:32:36;;;;;;;2.13;1.55;;;;;;;15.11;53.63;101750.25;5039799;28;20048;-80
2022/11/13 01:35:40;;;;;;;4.25;1.85;;;;;;;15.08;52.77;101743.50;5032202;28;20056;-80
2022/11/13 01:38:43;;;;;;;1.98;0.82;;;;;;;15.14;52.58;101746.84;5040394;28;20397;-80
2022/11/13 01:41:47;;;;;;;4.20;1.30;;;;;;;15.15;51.96;101752.03;5040522;28;20519;-80
2022/11/13 01:44:58;;;;;;;1.73;1.10;;;;;;;15.11;50.50;101745.59;5038933;28;20060;-80
2022/11/13 01:48:02;;;;;;;1.25;0.68;;;;;;;15.00;49.59;101744.28;5020688;28;20045;-80
2022/11/13 01:51:11;;;;;;;6.57;2.00;;;;;;;15.05;53.30;101749.59;5020499;28;20053;-80
2022/11/13 01:54:26;;;;;;;2.85;1.15;;;;;;;15.02;51.29;101755.72;5020449;28;20048;-80
2022/11/13 01:57:30;;;;;;;0.80;0.57;;;;;;;15.03;49.86;101748.31;5037410;28;20052;-80
2022/11/13 02:00:34;;;;;;;0.98;0.80;;;;;;;15.01;49.73;101756.03;5036132;28;20417;-80
2022/11/13 02:03:37;;;;;;;3.83;1.40;;;;;;;15.00;50.79;101760.72;5019863;28;20052;-80
2022/11/13 02:06:44;;;;;;;1.80;1.10;;;;;;;14.98;49.37;101762.97;5020132;28;20049;-81
2022/11/13 02:09:51;;;;;;;2.38;1.00;;;;;;;14.96;50.19;101749.59;5019731;28;20057;-80
2022/11/13 02:12:55;;;;;;;1.55;0.98;;;;;;;14.90;50.14;101759.06;5025542;28;20041;-80
2022/11/13 02:15:59;;;;;;;2.92;1.10;;;;;;;14.96;50.28;101748.78;5019671;28;20057;-80
2022/11/13 02:19:09;;;;;;;4.10;0.95;;;;;;;14.96;49.32;101749.59;5020252;28;20160;-80
2022/11/13 02:22:32;;;;;;;1.38;0.75;;;;;;;14.96;49.03;101749.59;5023269;28;20053;-81
2022/11/13 02:25:37;;;;;;;3.83;1.17;;;;;;;15.00;48.20;101747.00;5034293;28;20052;-80
2022/11/13 02:28:40;;;;;;;4.57;0.75;;;;;;;14.85;47.81;101747.47;5019966;28;20061;-80
2022/11/13 02:31:44;;;;;;;2.42;0.80;;;;;;;14.85;46.90;101739.25;5020404;28;20045;-80
2022/11/13 02:34:47;;;;;;;3.55;1.38;;;;;;;14.84;47.18;101730.22;5019879;28;20049;-80
2022/11/13 02:37:51;;;;;;;3.08;0.82;;;;;;;14.78;47.20;101731.50;5019997;28;20052;-79
2022/11/13 02:40:55;;;;;;;2.65;0.90;;;;;;;14.74;47.78;101729.72;5019417;28;20515;-80
2022/11/13 02:44:01;;;;;;;2.28;0.75;;;;;;;14.68;47.43;101722.78;5029845;28;20048;-80
2022/11/13 02:47:05;;;;;;;1.95;0.88;;;;;;;14.60;47.32;101723.56;5039522;28;20120;-80
2022/11/13 02:50:09;;;;;;;2.17;1.00;;;;;;;14.55;47.31;101721.78;5039575;28;20052;-80
2022/11/13 02:53:12;;;;;;;1.50;1.00;;;;;;;14.56;47.41;101728.88;5036804;28;20062;-80
2022/11/13 02:56:16;;;;;;;1.77;1.30;;;;;;;14.51;47.58;101727.09;5019381;28;20053;-80
2022/11/13 02:59:19;;;;;;;1.83;1.08;;;;;;;14.53;47.64;101718.53;5019516;28;20051;-80
2022/11/13 03:02:23;;;;;;;3.03;1.30;;;;;;;14.54;46.97;101726.44;5018582;28;20049;-80
2022/11/13 03:05:26;;;;;;;3.10;1.40;;;;;;;14.47;48.39;101726.09;5033537;28;20416;-80
2022/11/13 03:08:30;;;;;;;2.92;1.50;;;;;;;14.48;47.44;101729.63;5038561;28;20056;-80
2022/11/13 03:11:34;;;;;;;2.35;1.13;;;;;;;14.43;48.85;101725.09;5040654;28;20052;-80
2022/11/13 03:14:37;;;;;;;3.60;1.10;;;;;;;14.32;49.43;101721.03;5038310;28;20049;-80
2022/11/13 03:17:41;;;;;;;1.17;0.93;;;;;;;14.33;49.09;101721.81;5018839;28;20505;-81
2022/11/13 03:20:44;;;;;;;2.08;1.15;;;;;;;14.40;51.74;101717.53;5018337;28;20056;-80
2022/11/13 03:23:48;;;;;;;2.00;1.33;;;;;;;14.33;50.59;101719.88;5019611;28;20053;-80
2022/11/13 03:26:51;;;;;;;2.00;1.10;;;;;;;14.28;48.96;101730.16;5019456;28;20044;-81
2022/11/13 03:29:54;;;;;;;5.15;1.10;;;;;;;14.23;49.23;101725.63;5018554;28;20057;-80
2022/11/13 03:32:58;;;;;;;1.10;1.00;;;;;;;14.18;50.92;101722.22;5018299;28;20612;-81
2022/11/13 03:36:01;;;;;;;1.70;1.55;;;;;;;14.17;49.53;101732.34;5028044;28;20056;-81
2022/11/13 03:39:05;;;;;;;20.08;1.45;;;;;;;14.15;47.45;101718.19;5037867;28;20519;-80
2022/11/13 03:42:08;;;;;;;5.05;1.00;;;;;;;14.19;48.25;101724.66;5037877;28;20060;-81
2022/11/13 03:45:12;;;;;;;3.03;1.38;;;;;;;14.12;48.32;101707.88;5035818;28;20049;-80
2022/11/13 03:48:16;;;;;;;5.93;1.40;;;;;;;14.14;48.10;101703.72;5017300;28;20065;-80
2022/11/13 03:51:20;;;;;;;5.95;1.27;;;;;;;14.10;47.56;101700.00;5017490;28;20053;-80
2022/11/13 03:54:23;;;;;;;2.03;1.50;;;;;;;14.13;47.67;101699.34;5017752;28;20049;-80
2022/11/13 03:57:27;;;;;;;8.25;1.25;;;;;;;14.06;47.55;101692.75;5030908;28;20539;-79
2022/11/13 04:00:30;;;;;;;6.45;1.80;;;;;;;14.01;48.50;101688.22;5036777;28;20056;-80
2022/11/13 04:03:34;;;;;;;5.25;1.70;;;;;;;13.95;46.34;101678.53;5034701;28;20044;-79
2022/11/13 04:06:38;;;;;;;2.10;1.20;;;;;;;13.95;47.71;101678.53;5026271;28;21655;-80
2022/11/13 04:09:41;;;;;;;2.60;1.25;;;;;;;13.97;47.10;101667.25;5030494;28;20048;-79
2022/11/13 04:12:45;;;;;;;2.58;1.27;;;;;;;13.97;48.01;101680.94;5026047;28;20053;-81
2022/11/13 04:15:48;;;;;;;4.78;1.20;;;;;;;13.96;48.62;101673.88;5039704;28;20056;-80
2022/11/13 04:18:51;;;;;;;1.73;1.10;;;;;;;14.08;47.18;101679.53;5047567;28;20052;-79
2022/11/13 04:21:55;;;;;;;2.30;1.23;;;;;;;13.98;46.94;101674.34;5035552;28;20045;-80
2022/11/13 04:24:58;;;;;;;2.78;1.63;;;;;;;14.11;48.67;101685.22;5030743;28;20408;-80
2022/11/13 04:28:02;;;;;;;2.70;1.67;;;;;;;13.98;48.15;101674.34;5044943;28;20405;-79
2022/11/13 04:31:07;;;;;;;3.13;1.50;;;;;;;13.91;47.84;101683.03;5048582;28;20060;-78
2022/11/13 04:34:11;;;;;;;7.93;2.30;;;;;;;13.76;46.99;101688.88;5027565;28;20424;-80
2022/11/13 04:37:14;;;;;;;5.90;2.72;;;;;;;13.66;47.50;101679.00;5036048;28;20048;-80
2022/11/13 04:40:18;;;;;;;3.80;1.75;;;;;;;13.60;47.36;101685.72;5036035;28;20044;-80
2022/11/13 04:43:21;;;;;;;3.05;1.67;;;;;;;13.46;48.15;101690.44;5019133;28;20053;-80
2022/11/13 04:46:25;;;;;;;2.20;1.60;;;;;;;13.50;48.43;101707.03;5038593;28;20523;-80
2022/11/13 04:49:28;;;;;;;2.88;2.03;;;;;;;13.56;50.62;101706.56;5018625;28;20056;-79
2022/11/13 04:52:33;;;;;;;2.88;2.30;;;;;;;13.56;48.75;101725.72;5029076;28;20045;-80
2022/11/13 04:55:36;;;;;;;5.47;2.00;;;;;;;13.59;51.21;101727.84;5015640;28;20045;-80
2022/11/13 04:58:39;;;;;;;5.30;1.90;;;;;;;13.63;48.62;101719.81;5015969;28;20044;-81
2022/11/13 05:01:43;;;;;;;3.25;2.10;;;;;;;13.65;50.63;101726.59;5022985;28;20045;-80
2022/11/13 05:04:46;;;;;;;4.90;1.63;;;;;;;13.73;51.00;101716.81;5048498;28;20063;-79
2022/11/13 05:07:51;;;;;;;3.97;1.77;;;;;;;13.81;48.82;101727.03;5056609;28;20052;-80
2022/11/13 05:10:54;;;;;;;6.63;2.17;;;;;;;13.84;48.98;101725.59;5056312;28;20411;-80
2022/11/13 05:13:57;;;;;;;2.92;1.90;;;;;;;13.87;49.01;101724.94;5029522;28;20412;-80
2022/11/13 05:17:01;;;;;;;7.75;1.70;;;;;;;13.87;48.41;101716.75;5043292;28;20044;-79
2022/11/13 05:20:05;;;;;;;5.88;1.60;;;;;;;13.83;49.43;101722.03;5049789;28;20076;-80
2022/11/13 05:23:09;;;;;;;2.65;1.65;;;;;;;13.81;47.49;101723.47;5039681;28;20040;-80
2022/11/13 05:26:13;;;;;;;2.45;1.65;;;;;;;13.81;48.07;101732.50;5044180;28;20052;-80
2022/11/13 05:29:18;;;;;;;2.30;1.52;;;;;;;13.80;48.13;101743.72;5031000;28;20049;-80
2022/11/13 05:32:21;;;;;;;3.80;2.25;;;;;;;13.80;48.34;101746.47;5038053;28;20076;-80
2022/11/13 05:35:25;;;;;;;4.57;2.05;;;;;;;13.73;48.30;101746.91;5033221;28;20060;-79
2022/11/13 05:38:29;;;;;;;6.60;2.72;;;;;;;13.78;48.04;101751.44;5030972;28;20064;-79
2022/11/13 05:41:33;;;;;;;3.05;1.98;;;;;;;13.81;47.39;101757.09;5031956;28;20413;-79
2022/11/13 05:44:36;;;;;;;3.85;1.80;;;;;;;13.78;49.11;101768.63;5035326;28;20074;-79
2022/11/13 05:47:39;;;;;;;3.75;1.52;;;;;;;13.79;48.54;101775.72;5039774;28;20409;-79
2022/11/13 05:50:43;;;;;;;4.18;1.83;;;;;;;13.60;48.95;101770.44;5043415;28;20124;-79
2022/11/13 05:53:47;;;;;;;3.80;1.83;;;;;;;13.60;49.22;101775.91;5025872;28;20041;-80
2022/11/13 05:56:51;;;;;;;3.88;2.05;;;;;;;13.46;49.81;101764.19;5023121;28;20048;-79
2022/11/13 05:59:54;;;;;;;7.70;3.65;;;;;;;13.28;50.08;101755.06;5037888;28;20424;-79
2022/11/13 06:02:58;;;;;;;6.75;3.20;;;;;;;13.16;51.10;101746.59;5030983;28;20044;-79
2022/11/13 06:06:03;;;;;;;5.07;2.23;;;;;;;13.08;54.97;101733.63;5038222;28;20044;-79
2022/11/13 06:09:07;;;;;;;5.55;1.92;;;;;;;13.15;51.60;101744.19;5044995;28;20793;-79
2022/11/13 06:12:10;;;;;;;3.42;2.22;;;;;;;13.17;50.31;101748.22;5032752;28;20044;-79
2022/11/13 06:15:14;;;;;;;7.05;2.03;;;;;;;13.22;49.87;101761.75;5025901;28;20052;-79
2022/11/13 06:18:22;;;;;;;3.55;1.70;;;;;;;13.19;51.19;101770.56;5089106;22;20522;-79
2022/11/13 06:21:28;;;;;;;10.23;1.77;;;;;;;13.54;51.04;101773.59;5055668;28;20048;-79
2022/11/13 06:24:31;;;;;;;5.95;1.58;;;;;;;13.79;46.42;101772.19;5056279;28;20052;-78
2022/11/13 06:27:35;;;;;;;2.38;1.73;;;;;;;13.71;46.47;101768.28;5063082;28;20052;-78
2022/11/13 06:30:38;;;;;;;2.08;1.23;;;;;;;13.64;47.60;101773.38;5053790;28;20044;-78
2022/11/13 06:33:42;;;;;;;2.70;1.42;;;;;;;13.56;48.19;101782.31;5053889;28;20067;-79
2022/11/13 06:36:45;;;;;;;3.33;1.80;;;;;;;13.51;48.57;101783.22;5054496;28;20047;-79
2022/11/13 06:39:49;;;;;;;3.05;1.85;;;;;;;13.63;53.07;101778.03;5046411;28;20048;-79
2022/11/13 06:42:52;;;;;;;3.03;1.63;;;;;;;13.58;51.66;101789.06;5048502;28;20064;-79
2022/11/13 06:45:57;;;;;;;6.25;2.10;;;;;;;13.66;50.96;101793.78;5034787;28;20048;-78
2022/11/13 06:49:01;;;;;;;2.25;1.10;;;;;;;13.59;53.10;101800.81;5034768;28;20159;-78
2022/11/13 06:52:06;;;;;;;2.33;1.42;;;;;;;13.70;49.47;101805.75;5034721;28;20073;-78
2022/11/13 06:55:09;;;;;;;1.90;1.42;;;;;;;13.62;48.15;101806.47;5035684;28;20049;-79
2022/11/13 06:58:13;;;;;;;7.45;2.35;;;;;;;13.40;49.41;101800.97;5034114;28;20056;-79
2022/11/13 07:01:20;;;;;;;3.25;1.92;;;;;;;13.39;49.30;101810.28;5035226;28;20429;-77
2022/11/13 07:04:23;;;;;;;3.40;1.95;;;;;;;13.42;49.37;101808.84;5047214;28;20048;-78
2022/11/13 07:07:27;;;;;;;4.00;2.20;;;;;;;13.42;50.23;101814.31;5048791;28;20412;-78
2022/11/13 07:10:30;;;;;;;9.07;2.75;;;;;;;13.37;51.01;101817.16;5054718;28;20056;-78
2022/11/13 07:13:33;;;;;;;6.88;2.35;;;;;;;13.48;50.78;101813.09;5052812;28;20064;-78
2022/11/13 07:16:37;;;;;;;3.03;2.20;;;;;;;13.52;51.14;101814.91;5048888;28;20958;-79
2022/11/13 07:19:41;;;;;;;4.38;2.42;;;;;;;13.60;53.36;101813.38;5049899;28;20048;-78
2022/11/13 07:22:44;;;;;;;3.63;2.13;;;;;;;13.67;54.90;101828.22;5050519;28;20048;-78
2022/11/13 07:25:48;;;;;;;4.13;1.85;;;;;;;13.80;55.88;101826.56;5044690;28;20523;-78
2022/11/13 07:28:51;;;;;;;4.40;1.98;;;;;;;13.94;52.20;101821.03;5033750;28;20049;-79
2022/11/13 07:31:55;;;;;;;1.88;1.58;;;;;;;14.09;57.17;101823.41;5035417;28;20636;-79
2022/11/13 07:34:58;;;;;;;2.83;1.70;;;;;;;14.26;60.21;101826.25;5047555;28;20044;-78
2022/11/13 07:38:02;;;;;;;2.72;1.42;;;;;;;14.26;54.71;101834.47;5052021;28;20411;-79
2022/11/13 07:41:05;;;;;;;2.03;1.30;;;;;;;14.24;51.64;101833.94;5053551;28;20530;-78
2022/11/13 07:44:09;;;;;;;4.35;1.75;;;;;;;14.33;52.49;101831.25;5053368;28;20535;-78
2022/11/13 07:47:12;;;;;;;3.30;1.25;;;;;;;14.37;52.11;101830.38;5041212;28;20080;-78
2022/11/13 07:50:16;;;;;;;5.88;1.55;;;;;;;14.40;51.67;101829.75;5033940;28;20105;-79
2022/11/13 07:53:20;;;;;;;9.50;1.58;;;;;;;14.47;54.21;101826.56;5033154;28;20049;-80
2022/11/13 07:56:24;;;;;;;3.50;1.90;;;;;;;14.54;52.99;101827.72;5037125;28;20052;-78
2022/11/13 07:59:28;;;;;;;3.15;1.65;;;;;;;14.63;55.63;101835.19;5053209;28;20044;-79
2022/11/13 08:02:31;;;;;;;9.15;1.38;;;;;;;14.62;51.40;101825.34;5048935;28;20052;-79
2022/11/13 08:05:35;;;;;;;100.72;5.88;;;;;;;14.64;52.75;101829.38;5046591;28;20048;-79
2022/11/13 08:08:39;;;;;;;35.33;3.22;;;;;;;15.05;55.24;101834.53;5050588;28;20049;-78
2022/11/13 08:11:42;;;;;;;6.85;2.17;;;;;;;15.11;53.40;101826.97;5053638;28;20048;-78
2022/11/13 08:14:45;;;;;;;9.18;1.50;;;;;;;15.10;54.37;101828.09;5050865;28;20412;-78
2022/11/13 08:17:54;;;;;;;7.15;1.73;;;;;;;15.39;55.84;101829.09;5045967;28;20052;-77
2022/11/13 08:21:01;;;;;;;6.57;1.40;;;;;;;15.13;51.37;101819.25;5044845;28;20051;-78
2022/11/13 08:24:05;;;;;;;1.92;1.23;;;;;;;15.06;51.01;101814.22;5047779;28;20044;-77
2022/11/13 08:27:09;;;;;;;8.32;1.48;;;;;;;15.40;61.07;101819.78;5048760;28;20048;-79
2022/11/13 08:30:13;;;;;;;7.90;1.55;;;;;;;15.92;57.08;101824.50;5047195;28;20531;-77
2022/11/13 08:33:17;;;;;;;8.98;1.52;;;;;;;15.96;51.27;101826.25;5045716;28;20060;-79
2022/11/13 08:36:20;;;;;;;3.58;1.40;;;;;;;15.84;49.39;101812.41;5041631;28;20053;-78
2022/11/13 08:39:24;;;;;;;4.72;1.38;;;;;;;15.80;54.17;101817.72;5049562;28;20052;-79
2022/11/13 08:42:27;;;;;;;3.85;1.55;;;;;;;15.67;53.67;101813.22;5038957;28;20053;-77
2022/11/13 08:45:30;;;;;;;4.63;1.20;;;;;;;15.80;54.27;101792.22;5044567;28;20052;-78
2022/11/13 08:48:34;;;;;;;2.78;1.80;;;;;;;16.05;53.81;101794.13;5044209;28;20044;-77
2022/11/13 08:51:38;;;;;;;4.82;1.60;;;;;;;16.03;54.79;101788.19;5052863;28;20055;-78
2022/11/13 08:54:41;;;;;;;7.85;1.95;;;;;;;16.26;56.53;101786.81;5036661;28;20053;-78
2022/11/13 08:57:44;;;;;;;12.10;2.78;;;;;;;16.36;52.89;101787.59;5037425;28;20057;-77
2022/11/13 09:00:48;;;;;;;8.93;2.90;;;;;;;16.35;54.59;101791.50;5035682;28;20064;-78
2022/11/13 09:03:51;;;;;;;16.02;2.40;;;;;;;16.59;56.21;101800.00;5040741;28;20048;-78
2022/11/13 09:06:55;;;;;;;41.33;4.07;;;;;;;16.52;52.37;101794.16;5053734;28;20052;-78
2022/11/13 09:09:58;;;;;;;22.48;3.22;;;;;;;16.42;53.30;101805.50;5052651;28;20063;-79
2022/11/13 09:13:04;;;;;;;22.35;2.60;;;;;;;15.99;45.17;101813.84;5035165;28;20420;-88
2022/11/13 09:16:08;;;;;;;6.65;1.50;;;;;;;15.18;45.50;101814.44;5032790;28;20044;-84
2022/11/13 09:19:12;;;;;;;20.92;2.00;;;;;;;15.27;47.97;101815.25;5033107;28;20052;-88
2022/11/13 09:22:15;;;;;;;4.95;3.05;;;;;;;15.21;48.63;101818.44;5035255;28;20044;-82
2022/11/13 09:25:19;;;;;;;9.00;2.50;;;;;;;15.22;49.95;101820.06;5054889;28;20084;-87
2022/11/13 09:28:22;;;;;;;3.55;1.60;;;;;;;15.33;50.01;101827.69;5048380;28;20404;-83
2022/11/13 09:31:26;;;;;;;58.80;13.50;;;;;;;15.29;51.63;101823.13;5049608;28;20123;-87
2022/11/13 09:34:30;;;;;;;7.97;2.42;;;;;;;15.22;47.64;101806.38;5048747;28;20929;-82
2022/11/13 09:37:33;;;;;;;4.72;2.75;;;;;;;15.15;47.08;101809.56;5048287;28;20059;-87
2022/11/13 09:40:54;;;;;;;17.40;4.88;;;;;;;15.25;47.71;101825.72;5051916;28;20044;-86
2022/11/13 09:44:02;;;;;;;9.60;2.38;;;;;;;15.21;51.02;101815.72;5049214;28;20048;-85
2022/11/13 09:47:13;;;;;;;6.05;2.40;;;;;;;15.07;45.62;101809.56;5044253;28;20048;-83
2022/11/13 09:50:21;;;;;;;3.60;2.25;;;;;;;15.18;47.96;101811.69;5036269;28;20048;-83
2022/11/13 09:53:32;;;;;;;8.38;2.70;;;;;;;15.18;48.43;101806.22;5042809;28;20056;-84
2022/11/13 09:56:41;;;;;;;3.33;1.92;;;;;;;15.05;45.77;101785.22;5049065;28;20044;-85
2022/11/13 09:59:58;;;;;;;13.30;2.50;;;;;;;15.06;47.05;101778.63;5051175;28;20048;-82
2022/11/13 10:03:23;;;;;;;4.85;2.53;;;;;;;15.22;46.84;101771.56;5051452;28;20059;-84
2022/11/13 10:06:50;;;;;;;14.27;2.63;;;;;;;15.33;46.42;101759.16;5052011;28;20056;-82
2022/11/13 10:10:04;;;;;;;4.18;2.35;;;;;;;15.17;48.02;101741.56;5053893;28;20051;-83
2022/11/13 10:13:27;;;;;;;6.38;2.67;;;;;;;15.41;47.45;101735.59;5053827;28;20052;-82
2022/11/13 10:16:48;;;;;;;10.32;3.70;;;;;;;15.58;47.40;101737.56;5049952;28;20048;-84
2022/11/13 10:20:03;;;;;;;14.75;3.25;;;;;;;15.28;43.96;101729.16;5045755;28;20102;-83
2022/11/13 10:23:13;;;;;;;8.60;3.40;;;;;;;15.12;43.20;101733.50;5048387;28;20048;-82
2022/11/13 10:26:19;;;;;;;3.40;2.13;;;;;;;15.13;43.25;101726.09;5056316;28;20067;-81
2022/11/13 10:29:23;;;;;;;5.78;2.20;;;;;;;15.20;43.21;101734.63;5051381;28;20059;-80
2022/11/13 10:32:31;;;;;;;8.38;2.65;;;;;;;15.19;43.50;101742.03;5046833;28;20056;-81
2022/11/13 10:35:49;;;;;;;6.50;2.60;;;;;;;15.17;43.52;101735.28;5050934;28;20067;-83
2022/11/13 10:39:00;;;;;;;5.38;2.90;;;;;;;15.15;43.20;101740.25;5051774;28;20052;-79
2022/11/13 10:42:03;;;;;;;5.20;2.53;;;;;;;15.17;43.77;101736.09;5050733;28;20060;-80
2022/11/13 10:45:15;;;;;;;9.10;3.13;;;;;;;15.27;43.64;101733.03;5050229;28;20056;-81
2022/11/13 10:48:22;;;;;;;5.63;2.30;;;;;;;15.37;42.89;101724.50;5054887;28;20057;-81
2022/11/13 10:51:34;;;;;;;8.57;2.72;;;;;;;15.38;42.69;101747.22;5034493;28;20120;-81
2022/11/13 10:54:37;;;;;;;4.57;2.53;;;;;;;15.41;43.19;101744.63;5046238;28;20040;-81
2022/11/13 10:57:40;;;;;;;11.77;4.93;;;;;;;15.34;48.96;101719.63;5046884;28;20052;-82
2022/11/13 11:00:47;;;;;;;5.40;3.20;;;;;;;15.38;43.31;101722.56;5054293;28;20072;-81
2022/11/13 11:03:51;;;;;;;8.63;3.00;;;;;;;15.25;42.86;101724.31;5044754;28;20048;-80
2022/11/13 11:06:55;;;;;;;4.40;2.63;;;;;;;15.17;43.96;101722.38;5046061;28;20415;-82
2022/11/13 11:09:58;;;;;;;5.57;3.22;;;;;;;15.37;43.70;101718.19;5052688;28;20048;-82
2022/11/13 11:13:08;;;;;;;5.53;3.25;;;;;;;15.66;43.35;101712.88;5054514;28;20044;-83
2022/11/13 11:16:22;;;;;;;5.20;2.97;;;;;;;15.45;42.91;101708.34;5046356;28;20048;-83
2022/11/13 11:19:29;;;;;;;6.18;3.13;;;;;;;15.34;43.22;101707.88;5052427;28;20047;-81
2022/11/13 11:22:36;;;;;;;4.38;3.40;;;;;;;15.44;43.90;101714.97;5043960;28;20416;-82
2022/11/13 11:25:47;;;;;;;4.30;3.03;;;;;;;15.53;44.79;101702.09;5049426;28;20064;-81
2022/11/13 11:29:17;;;;;;;6.60;4.15;;;;;;;15.37;45.44;101705.31;5033842;28;20516;-82
2022/11/13 11:32:41;;;;;;;5.07;3.63;;;;;;;15.40;45.17;101698.34;5050902;28;20531;-84
2022/11/13 11:36:07;;;;;;;6.32;4.05;;;;;;;15.25;44.96;101691.44;5051246;28;20067;-83
2022/11/13 11:39:33;;;;;;;3.97;2.80;;;;;;;15.15;44.87;101699.97;5053654;28;20377;-84
2022/11/13 11:42:55;;;;;;;5.32;4.28;;;;;;;15.18;44.58;101693.88;5051529;28;20064;-79
2022/11/13 11:45:59;;;;;;;6.05;3.67;;;;;;;15.17;46.08;101677.75;5048872;28;20056;-85
2022/11/13 11:49:02;;;;;;;8.13;4.82;;;;;;;15.32;45.84;101675.31;5054305;28;20527;-84
2022/11/13 11:52:44;;;;;;;5.85;3.80;;;;;;;15.24;44.74;101675.31;5054190;28;20387;-84
2022/11/13 11:56:12;;;;;;;5.88;4.35;;;;;;;15.21;45.30;101662.25;5051663;28;20079;-83
2022/11/13 11:59:24;;;;;;;6.85;4.40;;;;;;;15.26;45.30;101653.88;5034060;28;20056;-82
2022/11/13 12:02:49;;;;;;;8.38;4.60;;;;;;;15.21;45.76;101646.63;5033904;28;20072;-82
2022/11/13 12:06:11;;;;;;;8.63;4.55;;;;;;;15.31;47.35;101649.03;5034042;28;20049;-83
2022/11/13 12:09:27;;;;;;;8.13;4.60;;;;;;;15.25;46.66;101646.78;5033854;28;20511;-82
2022/11/13 12:13:01;;;;;;;8.25;4.32;;;;;;;15.50;45.88;101651.41;5050732;28;20048;-84
2022/11/13 12:16:09;;;;;;;8.50;5.13;;;;;;;15.71;46.44;101640.59;5054032;28;19923;-82
2022/11/13 12:19:34;;;;;;;6.53;4.68;;;;;;;15.91;46.27;101648.13;5053545;28;20052;-82
2022/11/13 12:22:47;;;;;;;6.78;4.50;;;;;;;15.68;46.34;101644.81;5041764;28;20056;-82
2022/11/13 12:25:58;;;;;;;7.68;5.18;;;;;;;15.52;46.96;101648.41;5053517;28;20039;-82
2022/11/13 12:29:29;;;;;;;7.63;4.80;;;;;;;15.62;46.80;101645.31;5053001;28;20071;-83
2022/11/13 12:33:02;;;;;;;7.85;4.22;;;;;;;15.62;45.84;101635.16;5046294;28;20168;-81
2022/11/13 12:36:09;;;;;;;8.07;4.97;;;;;;;15.78;46.28;101622.53;5052220;28;20060;-82
2022/11/13 12:39:36;;;;;;;9.98;5.15;;;;;;;15.97;46.17;101608.41;5052578;28;20044;-80
2022/11/13 12:42:48;;;;;;;7.72;4.95;;;;;;;16.73;43.59;101602.81;5046715;28;20052;-83
2022/11/13 12:45:55;;;;;;;6.60;4.22;;;;;;;16.55;44.04;101593.06;5049300;28;20048;-82
2022/11/13 12:48:59;;;;;;;6.90;4.40;;;;;;;16.95;42.92;101585.19;5052020;28;20060;-81
2022/11/13 12:52:24;;;;;;;6.37;4.50;;;;;;;16.30;43.06;101583.88;5052200;28;20052;-82
2022/11/13 12:55:31;;;;;;;6.72;4.40;;;;;;;16.01;45.06;101581.91;5049700;28;20075;-85
2022/11/13 12:58:36;;;;;;;7.25;5.03;;;;;;;15.51;46.30;101570.81;5052171;28;20048;-84
2022/11/13 13:01:47;;;;;;;7.40;3.45;;;;;;;15.52;46.63;101571.63;5052602;28;20056;-84
2022/11/13 13:05:10;;;;;;;7.13;4.90;;;;;;;15.91;45.98;101570.50;5050377;28;20040;-81
2022/11/13 13:08:13;;;;;;;7.03;4.75;;;;;;;16.08;46.06;101570.44;5032189;28;20052;-81
2022/11/13 13:11:41;;;;;;;8.63;5.28;;;;;;;16.04;45.89;101573.03;5059570;28;20044;-83
2022/11/13 13:15:03;;;;;;;7.45;4.90;;;;;;;15.68;46.56;101570.78;5061404;28;20052;-80
2022/11/13 13:18:16;;;;;;;7.53;5.30;;;;;;;15.85;46.27;101567.13;5051072;28;20048;-84
2022/11/13 13:21:20;;;;;;;6.85;4.85;;;;;;;18.30;41.97;101568.56;5033967;28;20056;-83
2022/11/13 13:24:28;;;;;;;6.78;5.15;;;;;;;18.92;39.86;101561.75;5050074;28;20044;-82
2022/11/13 13:27:37;;;;;;;6.78;4.13;;;;;;;18.06;40.39;101563.88;5045338;28;20048;-83
2022/11/13 13:31:17;;;;;;;6.22;4.72;;;;;;;16.55;44.81;101563.66;5050224;28;20041;-85
2022/11/13 13:34:49;;;;;;;6.93;5.13;;;;;;;16.15;45.73;101562.50;5047509;28;20052;-83
2022/11/13 13:38:15;;;;;;;8.27;4.75;;;;;;;15.80;47.11;101581.84;5054014;28;20056;-83
2022/11/13 13:41:49;;;;;;;8.60;4.75;;;;;;;15.63;47.37;101578.38;5036243;28;20408;-83
2022/11/13 13:45:13;;;;;;;7.40;5.05;;;;;;;15.25;47.55;101572.78;5036133;28;20420;-83
2022/11/13 13:48:21;;;;;;;8.05;5.28;;;;;;;15.54;47.36;101567.44;5035936;28;20049;-81
2022/11/13 13:51:36;;;;;;;8.55;5.35;;;;;;;16.21;45.67;101574.84;5049149;28;20048;-79
2022/11/13 13:54:41;;;;;;;7.57;5.10;;;;;;;15.99;45.77;101567.72;5054257;28;20052;-79
2022/11/13 13:57:45;;;;;;;6.90;4.88;;;;;;;15.83;46.18;101562.00;5051324;28;20450;-77
2022/11/13 14:01:03;;;;;;;9.45;6.05;;;;;;;15.74;46.81;101560.44;5049041;28;20052;-78
2022/11/13 14:04:17;;;;;;;10.63;4.97;;;;;;;15.81;46.72;101557.97;5055476;28;20063;-79
2022/11/13 14:07:21;;;;;;;7.55;5.05;;;;;;;15.87;46.72;101564.88;5055384;28;20044;-79
2022/11/13 14:10:27;;;;;;;9.93;5.70;;;;;;;15.79;47.23;101565.72;5048281;28;20044;-79
2022/11/13 14:13:30;;;;;;;7.75;5.03;;;;;;;15.47;47.62;101561.63;5053858;28;20419;-80
2022/11/13 14:16:45;;;;;;;10.60;5.00;;;;;;;15.35;47.96;101567.78;5053829;28;20542;-78
2022/11/13 14:19:51;;;;;;;10.43;5.55;;;;;;;15.25;48.47;101557.16;5059714;28;20051;-80
2022/11/13 14:22:54;;;;;;;;;;;;;;;15.12;48.09;101569.13;5052528;28;20048;-78
2022/11/13 14:25:58;;;;;;;9.25;5.72;;;;;;;15.13;48.52;101568.00;5035888;28;19913;-82
2022/11/13 14:29:02;;;;;;;9.07;6.00;;;;;;;14.86;49.12;101569.16;5051766;28;20056;-78